createdAt,value
2022-07-31T00:00:46.076Z,16.88
2022-07-31T00:01:49.514Z,16.80
2022-07-31T00:02:52.746Z,16.76
2022-07-31T00:03:56.006Z,16.87
2022-07-31T00:05:05.015Z,16.79
2022-07-31T00:06:09.117Z,16.99
2022-07-31T00:07:12.300Z,16.93
2022-07-31T00:08:16.104Z,16.82
2022-07-31T00:09:45.339Z,16.70
2022-07-31T00:10:42.553Z,16.69
2022-07-31T00:11:46.275Z,16.75
2022-07-31T00:12:49.488Z,16.73
2022-07-31T00:13:56.471Z,16.70
2022-07-31T00:15:11.356Z,16.67
2022-07-31T00:16:14.488Z,16.73
2022-07-31T00:17:20.600Z,16.72
2022-07-31T00:18:23.814Z,16.77
2022-07-31T00:19:27.083Z,16.93
2022-07-31T00:20:30.301Z,16.83
2022-07-31T00:21:33.516Z,16.78
2022-07-31T00:22:36.679Z,16.65
2022-07-31T00:23:41.360Z,16.73
2022-07-31T00:24:44.396Z,16.91
2022-07-31T00:25:47.623Z,16.71
2022-07-31T00:26:52.980Z,16.81
2022-07-31T00:27:56.095Z,16.96
2022-07-31T00:28:59.283Z,16.94
2022-07-31T00:30:02.686Z,16.99
2022-07-31T00:31:06.191Z,16.93
2022-07-31T00:32:09.542Z,17.02
2022-07-31T00:33:16.040Z,16.85
2022-07-31T00:34:19.096Z,16.81
2022-07-31T00:35:22.348Z,16.73
2022-07-31T00:36:29.063Z,16.74
2022-07-31T00:37:37.034Z,16.69
2022-07-31T00:38:44.092Z,16.68
2022-07-31T00:39:50.255Z,16.66
2022-07-31T00:40:53.494Z,16.75
2022-07-31T00:41:56.838Z,16.72
2022-07-31T00:42:59.961Z,16.78
2022-07-31T00:44:03.047Z,16.69
2022-07-31T00:45:08.340Z,16.70
2022-07-31T00:46:14.625Z,16.63
2022-07-31T00:47:18.566Z,16.63
2022-07-31T00:48:31.580Z,16.67
2022-07-31T00:49:37.839Z,16.72
2022-07-31T00:50:41.374Z,16.71
2022-07-31T00:51:44.477Z,16.70
2022-07-31T00:52:47.584Z,16.72
2022-07-31T00:53:50.815Z,16.68
2022-07-31T00:54:54.195Z,16.77
2022-07-31T00:56:01.360Z,16.82
2022-07-31T00:57:06.264Z,16.90
2022-07-31T00:58:09.724Z,16.90
2022-07-31T00:59:12.855Z,16.89
2022-07-31T01:00:16.642Z,16.91
2022-07-31T01:01:20.724Z,16.91
2022-07-31T01:02:24.280Z,16.91
2022-07-31T01:03:27.464Z,16.81
2022-07-31T01:04:31.740Z,16.91
2022-07-31T01:05:38.092Z,16.88
2022-07-31T01:06:42.783Z,16.92
2022-07-31T01:07:47.616Z,16.99
2022-07-31T01:08:50.885Z,17.24
2022-07-31T01:09:56.365Z,17.05
2022-07-31T01:11:08.727Z,16.96
2022-07-31T01:12:36.557Z,17.00
2022-07-31T01:13:51.891Z,16.92
2022-07-31T01:15:00.667Z,16.83
2022-07-31T01:16:07.875Z,16.83
2022-07-31T01:17:12.463Z,16.90
2022-07-31T01:18:17.810Z,16.95
2022-07-31T01:19:50.208Z,17.05
2022-07-31T01:20:58.389Z,17.00
2022-07-31T01:22:38.791Z,17.13
2022-07-31T01:24:08.945Z,17.12
2022-07-31T01:25:33.425Z,17.00
2022-07-31T01:26:46.705Z,16.94
2022-07-31T01:28:15.454Z,17.14
2022-07-31T01:29:39.286Z,17.15
2022-07-31T01:31:26.719Z,17.10
2022-07-31T01:32:38.721Z,17.17
2022-07-31T01:33:51.450Z,17.08
2022-07-31T01:35:18.278Z,17.12
2022-07-31T01:36:26.484Z,17.02
2022-07-31T01:37:59.183Z,17.03
2022-07-31T01:39:04.060Z,17.02
2022-07-31T01:40:26.776Z,17.25
2022-07-31T01:41:34.678Z,17.06
2022-07-31T01:42:41.246Z,17.07
2022-07-31T01:43:49.544Z,17.05
2022-07-31T01:44:57.359Z,17.10
2022-07-31T01:46:04.626Z,17.00
2022-07-31T01:47:09.468Z,17.10
2022-07-31T01:48:16.196Z,17.16
2022-07-31T01:49:22.205Z,17.06
2022-07-31T01:50:43.469Z,17.06
2022-07-31T01:51:49.910Z,17.05
2022-07-31T01:52:58.933Z,17.17
2022-07-31T01:54:03.809Z,17.16
2022-07-31T01:55:08.286Z,17.34
2022-07-31T01:56:12.851Z,17.31
2022-07-31T01:57:18.649Z,17.21
2022-07-31T01:58:24.604Z,17.12
2022-07-31T01:59:32.876Z,17.14
2022-07-31T02:00:39.188Z,17.08
2022-07-31T02:01:44.306Z,17.04
2022-07-31T02:02:54.427Z,17.15
2022-07-31T02:04:00.420Z,17.08
2022-07-31T02:05:08.467Z,17.04
2022-07-31T02:06:13.918Z,17.11
2022-07-31T02:07:18.513Z,17.03
2022-07-31T02:08:23.211Z,16.99
2022-07-31T02:09:29.625Z,17.11
2022-07-31T02:10:33.522Z,17.06
2022-07-31T02:11:42.025Z,17.08
2022-07-31T02:13:04.138Z,17.18
2022-07-31T02:14:07.916Z,17.24
2022-07-31T02:15:14.606Z,17.16
2022-07-31T02:16:19.423Z,17.24
2022-07-31T02:17:24.873Z,17.17
2022-07-31T02:18:29.079Z,17.20
2022-07-31T02:19:32.474Z,17.36
2022-07-31T02:20:39.084Z,17.25
2022-07-31T02:21:42.969Z,17.37
2022-07-31T02:22:46.119Z,17.30
2022-07-31T02:23:49.108Z,17.14
2022-07-31T02:24:52.101Z,17.14
2022-07-31T02:25:55.534Z,17.19
2022-07-31T02:27:00.211Z,17.09
2022-07-31T02:28:12.495Z,17.06
2022-07-31T02:29:19.493Z,17.02
2022-07-31T02:30:27.405Z,17.20
2022-07-31T02:31:44.677Z,17.12
2022-07-31T02:32:49.154Z,17.22
2022-07-31T02:33:53.895Z,17.20
2022-07-31T02:35:00.018Z,17.09
2022-07-31T02:36:03.859Z,17.32
2022-07-31T02:37:08.295Z,17.20
2022-07-31T02:38:22.387Z,17.18
2022-07-31T02:39:30.817Z,17.26
2022-07-31T02:40:39.154Z,17.11
2022-07-31T02:41:47.498Z,16.98
2022-07-31T02:42:51.962Z,17.15
2022-07-31T02:43:55.664Z,17.10
2022-07-31T02:45:01.429Z,16.99
2022-07-31T02:46:07.490Z,16.92
2022-07-31T02:47:13.256Z,16.95
2022-07-31T02:48:16.852Z,16.94
2022-07-31T02:49:20.240Z,17.10
2022-07-31T02:50:23.732Z,16.99
2022-07-31T02:51:26.867Z,17.02
2022-07-31T02:52:30.649Z,17.09
2022-07-31T02:53:34.638Z,17.05
2022-07-31T02:54:41.085Z,17.15
2022-07-31T02:55:47.948Z,17.04
2022-07-31T02:56:52.563Z,17.03
2022-07-31T02:57:55.800Z,17.05
2022-07-31T02:58:59.134Z,17.14
2022-07-31T03:00:02.856Z,17.03
2022-07-31T03:01:09.494Z,16.85
2022-07-31T03:02:12.897Z,16.91
2022-07-31T03:03:16.057Z,16.95
2022-07-31T03:04:19.589Z,16.98
2022-07-31T03:05:26.195Z,16.94
2022-07-31T03:06:29.362Z,16.92
2022-07-31T03:07:32.471Z,16.78
2022-07-31T03:08:35.677Z,16.80
2022-07-31T03:09:38.845Z,16.79
2022-07-31T03:10:41.982Z,16.80
2022-07-31T03:11:45.246Z,16.82
2022-07-31T03:12:52.051Z,16.65
2022-07-31T03:13:59.147Z,16.77
2022-07-31T03:15:03.760Z,16.74
2022-07-31T03:16:11.680Z,16.77
2022-07-31T03:17:15.359Z,16.76
2022-07-31T03:18:21.995Z,16.80
2022-07-31T03:19:26.902Z,16.88
2022-07-31T03:20:30.352Z,16.90
2022-07-31T03:21:34.975Z,16.95
2022-07-31T03:22:40.145Z,16.78
2022-07-31T03:23:43.365Z,16.71
2022-07-31T03:24:46.707Z,16.76
2022-07-31T03:25:51.178Z,16.86
2022-07-31T03:26:54.347Z,16.86
2022-07-31T03:27:57.389Z,16.87
2022-07-31T03:30:17.115Z,16.74
2022-07-31T03:31:20.575Z,16.89
2022-07-31T03:32:23.680Z,16.75
2022-07-31T03:33:26.721Z,16.82
2022-07-31T03:34:29.978Z,16.83
2022-07-31T03:35:34.769Z,16.81
2022-07-31T03:36:46.782Z,16.80
2022-07-31T03:37:50.006Z,16.71
2022-07-31T03:38:53.282Z,16.73
2022-07-31T03:39:56.334Z,16.82
2022-07-31T03:40:59.460Z,16.89
2022-07-31T03:42:04.031Z,16.87
2022-07-31T03:43:07.864Z,16.96
2022-07-31T03:44:11.799Z,16.81
2022-07-31T03:45:15.963Z,16.82
2022-07-31T03:46:21.911Z,16.87
2022-07-31T03:47:25.140Z,16.76
2022-07-31T03:48:30.382Z,16.78
2022-07-31T03:49:34.805Z,16.75
2022-07-31T03:50:39.587Z,16.73
2022-07-31T03:51:42.945Z,16.86
2022-07-31T03:52:48.877Z,16.88
2022-07-31T03:53:52.423Z,16.99
2022-07-31T03:54:56.226Z,16.83
2022-07-31T03:56:00.803Z,16.83
2022-07-31T03:57:04.169Z,16.82
2022-07-31T03:58:07.926Z,16.97
2022-07-31T03:59:11.396Z,16.92
2022-07-31T04:00:17.921Z,16.97
2022-07-31T04:01:22.375Z,16.95
2022-07-31T04:02:28.448Z,17.05
2022-07-31T04:03:32.600Z,16.94
2022-07-31T04:04:37.815Z,17.08
2022-07-31T04:05:42.123Z,17.06
2022-07-31T04:06:45.398Z,17.12
2022-07-31T04:07:48.813Z,17.08
2022-07-31T04:08:54.825Z,16.89
2022-07-31T04:09:57.970Z,16.80
2022-07-31T04:11:01.180Z,17.00
2022-07-31T04:12:05.422Z,16.94
2022-07-31T04:13:08.673Z,16.82
2022-07-31T04:14:11.802Z,16.80
2022-07-31T04:15:14.946Z,16.97
2022-07-31T04:16:18.206Z,16.93
2022-07-31T04:17:21.523Z,17.02
2022-07-31T04:18:24.634Z,16.87
2022-07-31T04:19:31.330Z,16.91
2022-07-31T04:20:34.399Z,16.89
2022-07-31T04:21:37.488Z,16.88
2022-07-31T04:22:41.578Z,16.83
2022-07-31T04:23:49.418Z,16.78
2022-07-31T04:24:53.778Z,16.94
2022-07-31T04:25:56.676Z,17.00
2022-07-31T04:26:59.726Z,16.94
2022-07-31T04:28:02.715Z,16.91
2022-07-31T04:29:05.787Z,16.94
2022-07-31T04:30:09.868Z,16.92
2022-07-31T04:31:12.912Z,16.93
2022-07-31T04:32:16.122Z,17.00
2022-07-31T04:33:19.360Z,16.95
2022-07-31T04:34:22.362Z,16.92
2022-07-31T04:35:25.440Z,16.90
2022-07-31T04:36:30.414Z,16.94
2022-07-31T04:37:34.286Z,16.80
2022-07-31T04:38:37.188Z,16.79
2022-07-31T04:39:40.200Z,16.77
2022-07-31T04:40:43.599Z,16.74
2022-07-31T04:41:46.539Z,16.74
2022-07-31T04:42:49.444Z,16.81
2022-07-31T04:43:52.456Z,16.76
2022-07-31T04:44:55.565Z,16.64
2022-07-31T04:45:58.491Z,16.67
2022-07-31T04:47:03.597Z,16.77
2022-07-31T04:48:06.957Z,16.79
2022-07-31T04:49:13.439Z,16.81
2022-07-31T04:50:16.508Z,16.85
2022-07-31T04:51:20.802Z,16.78
2022-07-31T04:52:23.811Z,16.75
2022-07-31T04:53:27.120Z,16.83
2022-07-31T04:54:30.144Z,16.76
2022-07-31T04:55:33.163Z,16.71
2022-07-31T04:56:44.926Z,16.87
2022-07-31T04:57:51.343Z,16.82
2022-07-31T04:58:54.348Z,16.86
2022-07-31T04:59:59.150Z,16.82
2022-07-31T05:01:04.093Z,16.77
2022-07-31T05:02:07.679Z,16.58
2022-07-31T05:03:10.983Z,16.55
2022-07-31T05:04:14.175Z,16.61
2022-07-31T05:05:18.623Z,16.58
2022-07-31T05:06:25.642Z,16.58
2022-07-31T05:07:29.063Z,16.49
2022-07-31T05:08:32.090Z,16.43
2022-07-31T05:09:36.333Z,16.55
2022-07-31T05:10:58.305Z,16.48
2022-07-31T05:12:02.020Z,16.42
2022-07-31T05:13:05.018Z,16.49
2022-07-31T05:14:09.477Z,16.29
2022-07-31T05:15:12.532Z,16.19
2022-07-31T05:16:15.525Z,16.27
2022-07-31T05:17:18.556Z,16.42
2022-07-31T05:18:21.592Z,16.21
2022-07-31T05:19:29.954Z,16.22
2022-07-31T05:20:33.021Z,16.13
2022-07-31T05:21:36.034Z,16.13
2022-07-31T05:22:57.260Z,16.14
2022-07-31T05:24:07.187Z,16.00
2022-07-31T05:25:10.145Z,15.98
2022-07-31T05:26:13.357Z,16.01
2022-07-31T05:27:16.430Z,15.82
2022-07-31T05:28:20.154Z,15.76
2022-07-31T05:29:34.113Z,15.75
2022-07-31T05:30:37.447Z,15.80
2022-07-31T05:31:40.443Z,15.75
2022-07-31T05:33:05.835Z,15.70
2022-07-31T05:34:08.867Z,15.61
2022-07-31T05:35:11.750Z,15.66
2022-07-31T05:36:16.133Z,15.67
2022-07-31T05:37:18.985Z,15.66
2022-07-31T05:38:22.335Z,15.57
2022-07-31T05:39:25.438Z,15.59
2022-07-31T05:40:28.500Z,15.64
2022-07-31T05:41:33.835Z,15.72
2022-07-31T05:42:40.322Z,15.79
2022-07-31T05:43:44.771Z,15.77
2022-07-31T05:44:47.658Z,15.76
2022-07-31T05:45:50.665Z,15.74
2022-07-31T05:47:59.135Z,15.75
2022-07-31T05:49:02.160Z,15.71
2022-07-31T05:50:05.601Z,15.75
2022-07-31T05:51:11.730Z,15.68
2022-07-31T05:52:20.450Z,15.83
2022-07-31T05:53:23.294Z,15.85
2022-07-31T05:54:26.190Z,15.79
2022-07-31T05:55:29.141Z,15.68
2022-07-31T05:56:32.137Z,15.84
2022-07-31T05:57:35.189Z,15.84
2022-07-31T05:58:38.126Z,15.77
2022-07-31T06:00:50.513Z,15.75
2022-07-31T06:01:53.544Z,15.79
2022-07-31T06:02:56.863Z,15.89
2022-07-31T06:03:59.798Z,15.82
2022-07-31T06:05:02.784Z,15.72
2022-07-31T06:06:06.151Z,15.71
2022-07-31T06:07:09.041Z,15.81
2022-07-31T06:08:13.201Z,15.69
2022-07-31T06:09:16.047Z,15.71
2022-07-31T06:10:20.216Z,15.64
2022-07-31T06:11:23.042Z,15.63
2022-07-31T06:12:26.154Z,15.57
2022-07-31T06:13:30.551Z,15.50
2022-07-31T06:14:33.367Z,15.61
2022-07-31T06:15:36.897Z,15.46
2022-07-31T06:16:39.905Z,15.52
2022-07-31T06:17:44.763Z,15.57
2022-07-31T06:18:48.395Z,15.69
2022-07-31T06:19:51.446Z,15.73
2022-07-31T06:20:54.474Z,15.64
2022-07-31T06:21:57.333Z,15.52
2022-07-31T06:23:04.409Z,15.64
2022-07-31T06:24:26.314Z,15.59
2022-07-31T06:25:32.018Z,15.57
2022-07-31T06:26:41.990Z,15.51
2022-07-31T06:27:48.782Z,15.59
2022-07-31T06:28:58.050Z,15.56
2022-07-31T06:30:00.939Z,15.68
2022-07-31T06:31:03.943Z,15.61
2022-07-31T06:32:07.080Z,15.67
2022-07-31T06:33:16.676Z,15.68
2022-07-31T06:34:32.933Z,15.62
2022-07-31T06:35:35.911Z,15.63
2022-07-31T06:36:38.969Z,15.60
2022-07-31T06:37:41.971Z,15.73
2022-07-31T06:38:44.942Z,15.72
2022-07-31T06:39:55.408Z,15.66
2022-07-31T06:40:59.412Z,15.68
2022-07-31T06:42:02.650Z,15.83
2022-07-31T06:43:06.940Z,15.73
2022-07-31T06:44:10.369Z,15.78
2022-07-31T06:45:25.082Z,15.90
2022-07-31T06:46:36.317Z,15.93
2022-07-31T06:47:39.280Z,16.05
2022-07-31T06:48:42.210Z,15.98
2022-07-31T06:49:45.375Z,15.98
2022-07-31T06:50:48.815Z,16.02
2022-07-31T06:51:55.168Z,16.10
2022-07-31T06:52:58.064Z,16.01
2022-07-31T06:54:02.132Z,15.99
2022-07-31T06:55:06.086Z,16.08
2022-07-31T06:56:09.606Z,16.13
2022-07-31T06:57:13.093Z,16.07
2022-07-31T06:58:16.039Z,16.06
2022-07-31T07:00:26.766Z,16.13
2022-07-31T07:01:29.862Z,16.10
2022-07-31T07:02:32.883Z,16.19
2022-07-31T07:03:35.790Z,16.17
2022-07-31T07:05:04.423Z,16.10
2022-07-31T07:06:03.709Z,16.12
2022-07-31T07:07:06.617Z,16.30
2022-07-31T07:08:09.471Z,16.47
2022-07-31T07:09:12.556Z,16.41
2022-07-31T07:10:15.661Z,16.41
2022-07-31T07:11:19.435Z,16.45
2022-07-31T07:12:22.421Z,16.47
2022-07-31T07:13:45.144Z,16.43
2022-07-31T07:14:49.662Z,16.55
2022-07-31T07:15:52.863Z,16.44
2022-07-31T07:16:55.749Z,16.47
2022-07-31T07:17:58.833Z,16.44
2022-07-31T07:19:08.255Z,16.41
2022-07-31T07:20:11.376Z,16.40
2022-07-31T07:21:16.273Z,16.35
2022-07-31T07:22:19.154Z,16.54
2022-07-31T07:23:34.356Z,16.44
2022-07-31T07:24:37.229Z,16.51
2022-07-31T07:25:41.117Z,16.60
2022-07-31T07:26:44.125Z,16.59
2022-07-31T07:27:47.565Z,16.51
2022-07-31T07:28:50.962Z,16.55
2022-07-31T07:29:53.896Z,16.67
2022-07-31T07:30:56.914Z,16.72
2022-07-31T07:32:00.225Z,16.62
2022-07-31T07:33:03.189Z,16.61
2022-07-31T07:34:06.588Z,16.60
2022-07-31T07:35:09.666Z,16.67
2022-07-31T07:36:23.360Z,16.63
2022-07-31T07:37:28.537Z,16.62
2022-07-31T07:38:31.466Z,16.74
2022-07-31T07:39:38.814Z,16.62
2022-07-31T07:40:41.675Z,16.53
2022-07-31T07:41:44.538Z,16.59
2022-07-31T07:42:47.904Z,16.67
2022-07-31T07:43:52.513Z,16.60
2022-07-31T07:44:55.751Z,16.47
2022-07-31T07:45:59.231Z,16.47
2022-07-31T07:47:02.043Z,16.45
2022-07-31T07:48:07.578Z,16.48
2022-07-31T07:49:10.624Z,16.69
2022-07-31T07:50:15.839Z,16.57
2022-07-31T07:51:19.983Z,16.57
2022-07-31T07:52:22.903Z,16.59
2022-07-31T07:53:25.815Z,16.74
2022-07-31T07:54:30.001Z,16.88
2022-07-31T07:55:37.814Z,16.95
2022-07-31T07:56:40.986Z,17.01
2022-07-31T07:57:45.626Z,16.96
2022-07-31T07:58:49.412Z,17.02
2022-07-31T07:59:52.945Z,17.12
2022-07-31T08:00:55.820Z,17.05
2022-07-31T08:01:58.774Z,17.15
2022-07-31T08:03:46.866Z,17.15
2022-07-31T08:04:25.048Z,17.31
2022-07-31T08:05:27.925Z,17.17
2022-07-31T08:06:30.840Z,17.13
2022-07-31T08:07:42.081Z,17.28
2022-07-31T08:08:53.455Z,17.48
2022-07-31T08:09:59.874Z,17.49
2022-07-31T08:11:05.035Z,17.55
2022-07-31T08:12:08.786Z,17.59
2022-07-31T08:13:15.440Z,17.83
2022-07-31T08:14:18.321Z,17.99
2022-07-31T08:15:22.431Z,17.94
2022-07-31T08:16:25.729Z,17.96
2022-07-31T08:17:28.937Z,17.78
2022-07-31T08:18:32.124Z,17.66
2022-07-31T08:19:34.976Z,17.82
2022-07-31T08:20:38.886Z,17.90
2022-07-31T08:21:42.057Z,17.82
2022-07-31T08:22:45.939Z,17.78
2022-07-31T08:23:48.968Z,17.87
2022-07-31T08:24:52.119Z,17.87
2022-07-31T08:25:55.395Z,17.81
2022-07-31T08:27:17.130Z,17.90
2022-07-31T08:28:29.544Z,17.92
2022-07-31T08:29:32.636Z,17.98
2022-07-31T08:30:40.212Z,18.21
2022-07-31T08:31:43.183Z,18.51
2022-07-31T08:32:52.660Z,18.67
2022-07-31T08:33:55.636Z,18.80
2022-07-31T08:35:02.540Z,18.79
2022-07-31T08:36:09.515Z,18.84
2022-07-31T08:37:59.182Z,18.87
2022-07-31T08:38:37.114Z,18.86
2022-07-31T08:39:40.418Z,18.95
2022-07-31T08:40:43.851Z,18.78
2022-07-31T08:41:46.836Z,18.75
2022-07-31T08:42:49.872Z,18.82
2022-07-31T08:44:02.895Z,18.95
2022-07-31T08:45:08.303Z,18.86
2022-07-31T08:46:13.284Z,19.07
2022-07-31T08:47:17.456Z,19.27
2022-07-31T08:48:25.545Z,19.38
2022-07-31T08:49:31.332Z,19.57
2022-07-31T08:50:38.743Z,19.41
2022-07-31T08:51:50.911Z,19.20
2022-07-31T08:52:59.229Z,19.02
2022-07-31T08:54:07.312Z,19.13
2022-07-31T08:55:11.031Z,19.01
2022-07-31T08:56:29.070Z,18.86
2022-07-31T08:57:32.197Z,18.87
2022-07-31T08:58:39.252Z,18.70
2022-07-31T08:59:43.231Z,18.78
2022-07-31T09:00:46.231Z,18.72
2022-07-31T09:01:49.698Z,18.47
2022-07-31T09:02:55.418Z,18.47
2022-07-31T09:03:59.371Z,18.59
2022-07-31T09:05:02.369Z,18.67
2022-07-31T09:06:06.590Z,18.57
2022-07-31T09:07:15.097Z,18.58
2022-07-31T09:08:18.768Z,18.35
2022-07-31T09:09:21.796Z,18.59
2022-07-31T09:10:28.918Z,18.62
2022-07-31T09:11:32.393Z,18.62
2022-07-31T09:12:38.621Z,18.53
2022-07-31T09:14:03.441Z,18.58
2022-07-31T09:15:20.464Z,18.58
2022-07-31T09:16:30.542Z,18.70
2022-07-31T09:17:36.486Z,18.69
2022-07-31T09:18:39.345Z,18.51
2022-07-31T09:19:52.544Z,18.43
2022-07-31T09:21:02.895Z,18.48
2022-07-31T09:22:10.309Z,18.39
2022-07-31T09:23:14.533Z,18.32
2022-07-31T09:24:31.926Z,18.26
2022-07-31T09:25:40.333Z,18.30
2022-07-31T09:26:43.343Z,18.26
2022-07-31T09:27:51.149Z,18.19
2022-07-31T09:28:54.032Z,18.35
2022-07-31T09:29:57.670Z,18.30
2022-07-31T09:31:01.178Z,18.07
2022-07-31T09:32:24.276Z,18.11
2022-07-31T09:33:29.895Z,18.22
2022-07-31T09:34:32.720Z,18.25
2022-07-31T09:35:41.654Z,18.08
2022-07-31T09:36:44.680Z,18.19
2022-07-31T09:37:54.309Z,18.24
2022-07-31T09:38:57.952Z,18.08
2022-07-31T09:40:09.561Z,18.28
2022-07-31T09:41:55.941Z,18.37
2022-07-31T09:42:52.925Z,18.49
2022-07-31T09:44:09.895Z,18.36
2022-07-31T09:45:21.677Z,18.27
2022-07-31T09:46:24.507Z,18.55
2022-07-31T09:47:32.629Z,18.84
2022-07-31T09:48:37.419Z,19.05
2022-07-31T09:49:40.371Z,19.28
2022-07-31T09:50:57.066Z,19.28
2022-07-31T09:52:00.990Z,19.27
2022-07-31T09:53:04.051Z,19.44
2022-07-31T09:54:07.181Z,19.68
2022-07-31T09:55:16.129Z,19.76
2022-07-31T09:56:40.018Z,19.91
2022-07-31T09:57:57.877Z,20.11
2022-07-31T09:59:02.081Z,20.15
2022-07-31T10:00:12.776Z,20.44
2022-07-31T10:01:19.940Z,20.59
2022-07-31T10:02:26.949Z,20.44
2022-07-31T10:03:34.468Z,20.19
2022-07-31T10:04:41.709Z,20.15
2022-07-31T10:05:45.944Z,19.85
2022-07-31T10:06:50.442Z,20.03
2022-07-31T10:07:57.182Z,19.59
2022-07-31T10:09:06.346Z,19.31
2022-07-31T10:10:12.547Z,19.40
2022-07-31T10:11:22.308Z,19.43
2022-07-31T10:12:29.715Z,19.52
2022-07-31T10:13:38.831Z,19.36
2022-07-31T10:14:47.730Z,18.90
2022-07-31T10:15:54.542Z,18.99
2022-07-31T10:17:01.693Z,18.84
2022-07-31T10:18:06.024Z,18.86
2022-07-31T10:19:12.633Z,18.84
2022-07-31T10:20:22.057Z,18.86
2022-07-31T10:21:34.174Z,18.93
2022-07-31T10:22:46.748Z,18.98
2022-07-31T10:23:49.813Z,19.02
2022-07-31T10:24:54.329Z,18.82
2022-07-31T10:26:00.561Z,18.87
2022-07-31T10:27:10.547Z,18.85
2022-07-31T10:28:14.607Z,18.91
2022-07-31T10:29:18.155Z,18.95
2022-07-31T10:30:26.028Z,19.10
2022-07-31T10:31:31.710Z,19.04
2022-07-31T10:32:35.479Z,19.08
2022-07-31T10:33:44.203Z,19.02
2022-07-31T10:34:48.294Z,18.97
2022-07-31T10:35:59.763Z,19.18
2022-07-31T10:37:11.173Z,19.27
2022-07-31T10:38:24.424Z,19.23
2022-07-31T10:39:39.570Z,19.25
2022-07-31T10:40:47.537Z,19.13
2022-07-31T10:42:23.770Z,19.07
2022-07-31T10:43:30.637Z,19.17
2022-07-31T10:44:47.389Z,19.29
2022-07-31T10:45:52.464Z,19.36
2022-07-31T10:46:55.680Z,19.41
2022-07-31T10:48:01.026Z,19.64
2022-07-31T10:49:08.957Z,19.63
2022-07-31T10:50:23.385Z,19.58
2022-07-31T10:51:26.983Z,19.75
2022-07-31T10:52:31.936Z,20.02
2022-07-31T10:53:51.026Z,20.03
2022-07-31T10:55:00.281Z,20.28
2022-07-31T10:56:04.969Z,20.48
2022-07-31T10:57:08.219Z,20.74
2022-07-31T10:58:15.801Z,20.81
2022-07-31T10:59:29.490Z,20.54
2022-07-31T11:00:32.498Z,20.21
2022-07-31T11:01:53.252Z,20.31
2022-07-31T11:02:56.366Z,20.51
2022-07-31T11:04:05.209Z,20.53
2022-07-31T11:05:09.252Z,20.52
2022-07-31T11:06:13.152Z,20.48
2022-07-31T11:07:20.381Z,20.72
2022-07-31T11:08:26.526Z,20.85
2022-07-31T11:09:29.850Z,20.97
2022-07-31T11:10:34.399Z,21.37
2022-07-31T11:11:38.113Z,21.63
2022-07-31T11:12:41.101Z,21.56
2022-07-31T11:13:52.097Z,21.58
2022-07-31T11:14:54.950Z,21.38
2022-07-31T11:16:05.582Z,21.37
2022-07-31T11:17:08.803Z,21.35
2022-07-31T11:18:24.077Z,21.41
2022-07-31T11:19:41.989Z,21.46
2022-07-31T11:20:48.853Z,21.41
2022-07-31T11:21:57.814Z,21.25
2022-07-31T11:23:06.624Z,21.08
2022-07-31T11:24:15.187Z,21.09
2022-07-31T11:25:19.099Z,21.04
2022-07-31T11:26:33.404Z,21.05
2022-07-31T11:27:44.542Z,20.97
2022-07-31T11:28:47.394Z,21.21
2022-07-31T11:29:59.799Z,21.00
2022-07-31T11:31:07.727Z,21.16
2022-07-31T11:32:25.874Z,21.29
2022-07-31T11:33:48.435Z,21.17
2022-07-31T11:34:56.321Z,21.11
2022-07-31T11:36:12.093Z,21.05
2022-07-31T11:37:20.961Z,20.81
2022-07-31T11:38:29.318Z,20.72
2022-07-31T11:39:36.878Z,20.75
2022-07-31T11:40:43.616Z,20.62
2022-07-31T11:41:48.759Z,20.67
2022-07-31T11:43:10.437Z,20.82
2022-07-31T11:44:21.869Z,20.89
2022-07-31T11:45:24.948Z,21.04
2022-07-31T11:46:34.160Z,20.85
2022-07-31T11:48:11.914Z,20.91
2022-07-31T11:49:05.527Z,20.74
2022-07-31T11:50:10.819Z,20.49
2022-07-31T11:51:19.783Z,20.47
2022-07-31T11:52:30.743Z,20.29
2022-07-31T11:53:42.185Z,20.11
2022-07-31T11:54:48.466Z,20.14
2022-07-31T11:55:53.239Z,20.06
2022-07-31T11:56:56.851Z,20.15
2022-07-31T11:57:59.789Z,20.20
2022-07-31T11:59:02.701Z,20.38
2022-07-31T12:00:26.769Z,20.35
2022-07-31T12:01:32.804Z,20.18
2022-07-31T12:02:35.928Z,20.20
2022-07-31T12:03:43.669Z,20.33
2022-07-31T12:04:47.436Z,20.50
2022-07-31T12:05:52.651Z,20.58
2022-07-31T12:06:57.564Z,20.63
2022-07-31T12:08:00.683Z,20.62
2022-07-31T12:09:05.088Z,20.87
2022-07-31T12:10:12.929Z,21.13
2022-07-31T12:11:18.671Z,21.00
2022-07-31T12:12:21.774Z,21.25
2022-07-31T12:13:30.488Z,21.02
2022-07-31T12:14:38.657Z,20.73
2022-07-31T12:15:41.865Z,20.60
2022-07-31T12:16:44.864Z,20.58
2022-07-31T12:17:48.092Z,20.73
2022-07-31T12:18:54.084Z,20.87
2022-07-31T12:20:07.166Z,20.80
2022-07-31T12:21:10.724Z,20.67
2022-07-31T12:22:15.897Z,20.61
2022-07-31T12:23:41.118Z,20.79
2022-07-31T12:24:43.369Z,20.64
2022-07-31T12:25:46.810Z,20.33
2022-07-31T12:26:52.365Z,20.00
2022-07-31T12:27:55.915Z,19.75
2022-07-31T12:29:05.071Z,19.70
2022-07-31T12:30:18.355Z,19.77
2022-07-31T12:31:21.335Z,19.98
2022-07-31T12:32:27.907Z,20.08
2022-07-31T12:33:41.863Z,19.74
2022-07-31T12:34:45.773Z,19.78
2022-07-31T12:35:55.270Z,19.80
2022-07-31T12:37:26.363Z,19.75
2022-07-31T12:38:45.356Z,19.69
2022-07-31T12:41:05.658Z,19.64
2022-07-31T12:42:08.839Z,19.58
2022-07-31T12:43:11.684Z,19.65
2022-07-31T12:44:14.892Z,19.54
2022-07-31T12:45:35.702Z,19.29
2022-07-31T12:46:38.825Z,19.40
2022-07-31T12:47:41.838Z,19.51
2022-07-31T12:48:46.272Z,19.31
2022-07-31T12:49:49.621Z,19.35
2022-07-31T12:50:54.033Z,19.23
2022-07-31T12:51:56.910Z,19.11
2022-07-31T12:53:03.252Z,19.15
2022-07-31T12:54:07.255Z,19.21
2022-07-31T12:55:12.517Z,19.32
2022-07-31T12:56:15.432Z,19.30
2022-07-31T12:57:18.354Z,19.26
2022-07-31T12:58:24.295Z,19.30
2022-07-31T12:59:27.283Z,19.41
2022-07-31T13:00:30.163Z,19.19
2022-07-31T13:01:34.281Z,19.09
2022-07-31T13:02:37.196Z,19.01
2022-07-31T13:03:46.424Z,19.00
2022-07-31T13:04:49.432Z,18.89
2022-07-31T13:05:52.381Z,18.98
2022-07-31T13:06:55.441Z,18.95
2022-07-31T13:07:58.768Z,18.84
2022-07-31T13:09:02.035Z,18.81
2022-07-31T13:10:19.896Z,18.96
2022-07-31T13:11:48.187Z,18.95
2022-07-31T13:12:52.517Z,18.92
2022-07-31T13:13:57.779Z,18.80
2022-07-31T13:15:02.410Z,18.75
2022-07-31T13:16:05.841Z,18.63
2022-07-31T13:17:08.862Z,18.63
2022-07-31T13:18:12.054Z,18.58
2022-07-31T13:19:15.773Z,18.46
2022-07-31T13:20:19.455Z,18.71
2022-07-31T13:21:22.652Z,18.69
2022-07-31T13:22:25.575Z,18.63
2022-07-31T13:23:28.550Z,18.68
2022-07-31T13:24:31.822Z,18.48
2022-07-31T13:25:34.987Z,18.45
2022-07-31T13:26:38.485Z,18.28
2022-07-31T13:27:45.537Z,18.25
2022-07-31T13:28:48.527Z,18.08
2022-07-31T13:29:51.553Z,18.15
2022-07-31T13:30:55.329Z,18.18
2022-07-31T13:31:59.410Z,18.22
2022-07-31T13:33:02.291Z,18.30
2022-07-31T13:34:05.374Z,18.34
2022-07-31T13:35:19.660Z,18.24
2022-07-31T13:36:35.793Z,18.22
2022-07-31T13:37:46.667Z,18.32
2022-07-31T13:38:50.593Z,18.53
2022-07-31T13:39:53.693Z,18.56
2022-07-31T13:41:15.357Z,18.68
2022-07-31T13:42:18.449Z,18.68
2022-07-31T13:43:21.402Z,18.81
2022-07-31T13:44:24.466Z,18.97
2022-07-31T13:45:27.332Z,18.99
2022-07-31T13:46:31.572Z,19.09
2022-07-31T13:47:51.615Z,19.21
2022-07-31T13:49:01.814Z,19.28
2022-07-31T13:50:05.897Z,19.23
2022-07-31T13:51:09.737Z,19.20
2022-07-31T13:52:12.617Z,19.31
2022-07-31T13:53:15.404Z,19.38
2022-07-31T13:54:18.475Z,19.48
2022-07-31T13:55:21.315Z,19.33
2022-07-31T13:56:39.778Z,19.38
2022-07-31T13:57:46.715Z,19.41
2022-07-31T13:58:49.827Z,19.44
2022-07-31T13:59:56.657Z,19.55
2022-07-31T14:01:04.391Z,19.54
2022-07-31T14:02:08.178Z,19.55
2022-07-31T14:03:12.512Z,19.62
2022-07-31T14:04:23.822Z,19.75
2022-07-31T14:05:27.907Z,19.93
2022-07-31T14:06:30.855Z,19.99
2022-07-31T14:07:45.416Z,19.96
2022-07-31T14:08:54.732Z,19.82
2022-07-31T14:09:57.658Z,19.75
2022-07-31T14:11:01.060Z,19.73
2022-07-31T14:12:08.069Z,19.58
2022-07-31T14:13:12.774Z,19.68
2022-07-31T14:14:22.797Z,19.79
2022-07-31T14:15:30.202Z,19.98
2022-07-31T14:16:39.536Z,19.75
2022-07-31T14:17:42.562Z,19.64
2022-07-31T14:18:45.703Z,19.66
2022-07-31T14:19:48.629Z,19.75
2022-07-31T14:20:51.743Z,19.76
2022-07-31T14:21:56.715Z,19.77